Time;durP1;ratioP1;P1;durP2;ratioP2;P2;SDS_P1;SDS_P2;PMS_P1;PMS_P2;Temp;Humidity;BMP_temperature;BMP_pressure;BME280_temperature;BME280_humidity;BME280_pressure;Samples;Min_cycle;Max_cycle;Signal;HPM_P1;HPM_P2
2022/04/09 00:00:48;;;;;;;0.10;0.10;;;;;;;;;;5027001;28;20046;-58
2022/04/09 00:03:46;;;;;;;0.57;0.20;;;;;;;;;;5023629;28;20056;-57
2022/04/09 00:06:38;;;;;;;0.30;0.20;;;;;;;;;;5026794;28;20041;-56
2022/04/09 00:09:31;;;;;;;0.40;0.27;;;;;;;;;;5026106;28;20045;-59
2022/04/09 00:12:23;;;;;;;0.10;0.10;;;;;;;;;;5026740;28;20042;-55
2022/04/09 00:15:03;;;;;;;0.10;0.10;;;;;;;;;;5026752;28;20036;-58
2022/04/09 00:17:59;;;;;;;0.23;0.17;;;;;;;;;;5025426;28;20136;-59
2022/04/09 00:20:28;;;;;;;0.20;0.20;;;;;;;;;;4964911;29;20070;-58
2022/04/09 00:23:27;;;;;;;0.20;0.20;;;;;;;;;;4966595;29;20042;-58
2022/04/09 00:26:08;;;;;;;0.03;0.03;;;;;;;;;;4871737;29;20086;-58
2022/04/09 00:28:46;;;;;;;0.40;0.30;;;;;;;;;;4871003;29;20033;-57
2022/04/09 00:34:31;;;;;;;0.63;0.40;;;;;;;;;;4983981;28;20098;-57
2022/04/09 00:40:42;;;;;;;0.87;0.53;;;;;;;;;;5009428;28;20105;-57
2022/04/09 00:43:12;;;;;;;0.73;0.43;;;;;;;;;;5025839;28;20032;-57
2022/04/09 00:46:04;;;;;;;0.80;0.53;;;;;;;;;;5025698;28;20046;-57
2022/04/09 00:48:52;;;;;;;1.37;0.70;;;;;;;;;;4963876;29;20046;-57
2022/04/09 00:51:45;;;;;;;;;;;;;;;;;;;;;
2022/04/09 00:54:35;;;;;;;1.07;0.57;;;;;;;;;;5022415;28;20061;-57
2022/04/09 01:00:40;;;;;;;0.47;0.27;;;;;;;;;;5019307;28;20045;-58
2022/04/09 01:03:45;;;;;;;0.90;0.60;;;;;;;;;;4967993;29;20043;-57
2022/04/09 01:06:39;;;;;;;0.67;0.40;;;;;;;;;;4979869;28;20026;-57
2022/04/09 01:09:21;;;;;;;0.57;0.30;;;;;;;;;;5028771;28;20046;-57
2022/04/09 01:12:08;;;;;;;;;;;;;;;;;;;;;
2022/04/09 01:14:47;;;;;;;0.70;0.50;;;;;;;;;;5029630;28;20053;-57
2022/04/09 01:20:32;;;;;;;1.67;0.73;;;;;;;;;;5029320;28;20040;-56
2022/04/09 01:23:29;;;;;;;1.27;0.70;;;;;;;;;;5029344;28;20085;-57
2022/04/09 01:26:07;;;;;;;0.70;0.43;;;;;;;;;;5028440;28;20026;-58
2022/04/09 01:28:49;;;;;;;1.37;0.97;;;;;;;;;;5027087;28;20026;-57
2022/04/09 01:31:43;;;;;;;;;;;;;;;;;;;;;
2022/04/09 01:34:31;;;;;;;0.97;0.63;;;;;;;;;;5029551;28;20058;-57
2022/04/09 01:37:32;;;;;;;0.20;0.20;;;;;;;;;;5029889;28;20044;-58
2022/04/09 01:40:32;;;;;;;1.20;0.50;;;;;;;;;;5029346;28;20058;-57
2022/04/09 01:43:18;;;;;;;1.10;0.82;;;;;;;;;;5029599;28;20021;-57
2022/04/09 01:46:02;;;;;;;1.97;1.23;;;;;;;;;;5029042;28;20058;-57
2022/04/09 01:51:48;;;;;;;1.00;0.67;;;;;;;;;;5029080;28;20057;-56
2022/04/09 01:54:20;;;;;;;1.98;0.77;;;;;;;;;;5029587;28;20021;-56
2022/04/09 02:03:05;;;;;;;1.97;1.37;;;;;;;;;;5028801;28;20092;-57
2022/04/09 02:06:12;;;;;;;;;;;;;;;;;;;;;
2022/04/09 02:09:16;;;;;;;2.00;1.80;;;;;;;;;;5028152;28;20060;-56
2022/04/09 02:11:43;;;;;;;1.73;1.37;;;;;;;;;;5027364;28;20064;-57
2022/04/09 02:14:31;;;;;;;2.07;1.27;;;;;;;;;;5028990;28;20476;-57
2022/04/09 02:20:38;;;;;;;2.40;1.40;;;;;;;;;;5002822;28;20030;-57
2022/04/09 02:23:23;;;;;;;2.93;2.40;;;;;;;;;;5004871;28;20045;-57
2022/04/09 02:26:08;;;;;;;3.53;1.70;;;;;;;;;;5026183;28;20041;-56
2022/04/09 02:29:01;;;;;;;3.10;2.00;;;;;;;;;;5027926;28;20030;-58
2022/04/09 02:31:54;;;;;;;2.63;1.90;;;;;;;;;;5028213;28;20057;-58
2022/04/09 02:34:37;;;;;;;3.10;2.33;;;;;;;;;;5028394;28;20037;-58
2022/04/09 02:37:23;;;;;;;3.53;2.43;;;;;;;;;;5028122;28;20018;-57
2022/04/09 02:40:24;;;;;;;2.77;2.20;;;;;;;;;;5027814;28;20100;-57
2022/04/09 02:43:15;;;;;;;3.27;2.60;;;;;;;;;;5028184;28;20037;-58
2022/04/09 02:45:45;;;;;;;2.72;1.98;;;;;;;;;;5028162;28;20037;-57
2022/04/09 02:54:43;;;;;;;;;;;;;;;;;;;;;
2022/04/09 02:57:57;;;;;;;3.00;2.20;;;;;;;;;;4901114;29;20091;-57
2022/04/09 03:03:24;;;;;;;2.83;1.73;;;;;;;;;;5013292;28;20137;-57
2022/04/09 03:05:57;;;;;;;3.60;2.87;;;;;;;;;;5028189;28;20032;-57
2022/04/09 03:11:32;;;;;;;2.10;1.37;;;;;;;;;;5028161;28;20033;-57
2022/04/09 03:14:23;;;;;;;2.60;1.90;;;;;;;;;;5017752;28;20071;-57
2022/04/09 03:17:15;;;;;;;2.90;2.38;;;;;;;;;;5027881;28;20033;-57
2022/04/09 03:19:46;;;;;;;2.80;2.00;;;;;;;;;;5027711;28;20399;-58
2022/04/09 03:22:34;;;;;;;2.80;2.17;;;;;;;;;;5026327;28;20069;-58
2022/04/09 03:25:48;;;;;;;2.27;1.40;;;;;;;;;;5026227;28;20032;-57
2022/04/09 03:28:54;;;;;;;2.80;1.80;;;;;;;;;;4966273;29;20077;-57
2022/04/09 03:31:25;;;;;;;2.30;1.57;;;;;;;;;;5002621;28;20041;-57
2022/04/09 03:37:27;;;;;;;3.17;2.43;;;;;;;;;;5014334;28;20076;-57
2022/04/09 03:45:55;;;;;;;3.30;2.90;;;;;;;;;;5007597;28;20029;-57
2022/04/09 03:48:37;;;;;;;3.47;3.10;;;;;;;;;;5033236;28;20038;-57
2022/04/09 03:51:13;;;;;;;5.90;3.97;;;;;;;;;;5034169;28;20030;-57
2022/04/09 03:54:08;;;;;;;3.90;3.30;;;;;;;;;;5025357;28;20029;-58
2022/04/09 03:57:03;;;;;;;4.77;3.93;;;;;;;;;;5033655;28;20029;-57
2022/04/09 03:59:36;;;;;;;4.63;3.90;;;;;;;;;;4988829;28;20341;-57
2022/04/09 04:02:14;;;;;;;6.17;4.60;;;;;;;;;;5033416;28;20033;-57
2022/04/09 04:08:21;;;;;;;7.70;4.90;;;;;;;;;;5029035;28;20029;-56
2022/04/09 04:14:13;;;;;;;9.50;6.17;;;;;;;;;;5032730;28;20487;-57
2022/04/09 04:17:41;;;;;;;;;;;;;;;;;;;;;
2022/04/09 04:20:15;;;;;;;6.47;5.87;;;;;;;;;;4998396;28;20092;-57
2022/04/09 04:23:03;;;;;;;8.40;7.53;;;;;;;;;;5012105;28;20041;-57
2022/04/09 04:25:42;;;;;;;7.10;6.37;;;;;;;;;;5030394;28;20026;-57
2022/04/09 04:32:10;;;;;;;7.55;6.85;;;;;;;;;;4972232;28;20041;-57
2022/04/09 04:35:05;;;;;;;8.33;6.70;;;;;;;;;;4958337;28;20536;-56
2022/04/09 04:38:12;;;;;;;6.87;5.77;;;;;;;;;;5025090;28;20030;-56
2022/04/09 04:41:00;;;;;;;;;;;;;;;;;;;;;
2022/04/09 04:43:52;;;;;;;15.43;7.70;;;;;;;;;;5013276;28;20379;-56
2022/04/09 04:46:43;;;;;;;8.50;7.60;;;;;;;;;;4914532;29;20115;-55
2022/04/09 04:49:25;;;;;;;13.65;8.93;;;;;;;;;;4993313;28;20546;-55
2022/04/09 04:55:03;;;;;;;10.03;8.27;;;;;;;;;;5021168;28;20475;-55
2022/04/09 05:03:37;;;;;;;9.40;8.10;;;;;;;;;;5013123;28;20029;-56
2022/04/09 05:06:14;;;;;;;9.00;6.93;;;;;;;;;;5029908;28;20051;-56
2022/04/09 05:08:52;;;;;;;11.20;9.47;;;;;;;;;;5032106;28;20048;-55
2022/04/09 05:15:06;;;;;;;11.33;10.20;;;;;;;;;;5032555;28;20084;-55
2022/04/09 05:20:21;;;;;;;10.53;8.87;;;;;;;;;;5032638;28;20451;-56
2022/04/09 05:22:56;;;;;;;10.50;8.63;;;;;;;;;;5031822;28;20025;-55
2022/04/09 05:25:43;;;;;;;11.63;8.23;;;;;;;;;;5032449;28;20030;-56
2022/04/09 05:28:24;;;;;;;10.67;9.47;;;;;;;;;;5032559;28;20398;-57
2022/04/09 05:31:25;;;;;;;;;;;;;;;;;;;;;
2022/04/09 05:37:26;;;;;;;11.27;8.60;;;;;;;;;;5019092;28;20037;-56
2022/04/09 05:40:05;;;;;;;9.90;8.50;;;;;;;;;;5030550;28;20041;-56
2022/04/09 05:45:54;;;;;;;17.00;10.20;;;;;;;;;;5004238;28;20093;-53
2022/04/09 05:48:48;;;;;;;8.48;7.30;;;;;;;;;;5035436;28;20025;-54
2022/04/09 05:51:24;;;;;;;8.02;7.15;;;;;;;;;;5035833;28;20022;-56
2022/04/09 05:57:09;;;;;;;9.95;7.55;;;;;;;;;;5016151;28;20044;-57
2022/04/09 05:59:47;;;;;;;9.90;6.97;;;;;;;;;;5019042;28;20104;-57
2022/04/09 06:02:39;;;;;;;5.57;5.05;;;;;;;;;;5035682;28;20442;-55
2022/04/09 06:05:24;;;;;;;8.38;4.82;;;;;;;;;;5033407;28;20076;-54
2022/04/09 06:08:36;;;;;;;;;;;;;;;;;;;;;
2022/04/09 06:11:43;;;;;;;6.05;4.75;;;;;;;;;;5034921;28;20124;-57
2022/04/09 06:14:17;;;;;;;6.82;3.55;;;;;;;;;;5033897;28;20127;-57
2022/04/09 06:17:18;;;;;;;4.22;3.70;;;;;;;;;;5035810;28;20272;-56
2022/04/09 06:20:12;;;;;;;6.25;4.43;;;;;;;;;;5011953;28;20140;-56
2022/04/09 06:23:12;;;;;;;;;;;;;;;;;;;;;
2022/04/09 06:28:53;;;;;;;4.22;3.70;;;;;;;;;;5034747;28;20032;-57
2022/04/09 06:34:33;;;;;;;4.85;3.55;;;;;;;;;;4988423;28;20025;-59
2022/04/09 06:37:30;;;;;;;7.03;3.50;;;;;;;;;;4989306;28;20127;-57
2022/04/09 06:40:14;;;;;;;4.55;3.35;;;;;;;;;;5034706;28;20093;-57
2022/04/09 06:42:57;;;;;;;9.40;5.10;;;;;;;;;;5029270;28;20415;-58
2022/04/09 06:45:42;;;;;;;5.00;3.63;;;;;;;;;;4999891;28;20053;-57
2022/04/09 06:48:46;;;;;;;4.57;3.40;;;;;;;;;;5029741;28;20467;-57
2022/04/09 06:51:32;;;;;;;6.15;4.03;;;;;;;;;;5003882;28;20049;-54
2022/04/09 06:57:43;;;;;;;6.38;4.28;;;;;;;;;;5031285;28;20120;-56
2022/04/09 07:00:34;;;;;;;6.80;4.70;;;;;;;;;;5034716;28;20029;-58
2022/04/09 07:03:13;;;;;;;4.88;4.25;;;;;;;;;;5034769;28;20049;-58
2022/04/09 07:06:19;;;;;;;;;;;;;;;;;;;;;
2022/04/09 07:09:12;;;;;;;5.17;4.30;;;;;;;;;;5028744;28;20044;-58
2022/04/09 07:11:50;;;;;;;8.17;5.10;;;;;;;;;;5034418;28;20033;-57
2022/04/09 07:14:45;;;;;;;4.90;3.80;;;;;;;;;;5034482;28;20061;-57
2022/04/09 07:17:36;;;;;;;12.27;5.63;;;;;;;;;;5034224;28;20037;-57
2022/04/09 07:20:08;;;;;;;;;;;;;;;;;;5034190;28;20486;-57
2022/04/09 07:23:02;;;;;;;5.47;4.77;;;;;;;;;;5015360;28;20362;-57
2022/04/09 07:25:47;;;;;;;4.85;3.30;;;;;;;;;;5033780;28;20029;-57
2022/04/09 07:28:57;;;;;;;9.15;5.93;;;;;;;;;;5020481;28;20182;-58
2022/04/09 07:31:29;;;;;;;5.53;3.88;;;;;;;;;;5032229;28;20650;-58
2022/04/09 07:34:14;;;;;;;6.05;4.07;;;;;;;;;;5033045;28;20494;-58
2022/04/09 07:36:55;;;;;;;6.40;4.65;;;;;;;;;;5030322;28;20018;-58
2022/04/09 07:39:37;;;;;;;8.07;5.30;;;;;;;;;;5026303;28;20087;-57
2022/04/09 07:42:41;;;;;;;4.97;3.65;;;;;;;;;;5030998;28;20033;-58
2022/04/09 07:45:20;;;;;;;7.55;5.47;;;;;;;;;;5032999;28;20029;-56
2022/04/09 07:47:52;;;;;;;11.10;4.85;;;;;;;;;;5032331;28;20159;-58
2022/04/09 07:50:44;;;;;;;9.48;4.63;;;;;;;;;;5033375;28;20033;-57
2022/04/09 07:56:30;;;;;;;7.20;4.38;;;;;;;;;;4944908;28;20032;-58
2022/04/09 07:59:34;;;;;;;4.80;3.83;;;;;;;;;;5023512;28;20120;-58
2022/04/09 08:02:40;;;;;;;;;;;;;;;;;;;;;
2022/04/09 08:05:18;;;;;;;4.43;3.38;;;;;;;;;;5033661;28;20045;-57
2022/04/09 08:08:03;;;;;;;4.68;2.72;;;;;;;;;;5028757;28;20115;-58
2022/04/09 08:10:55;;;;;;;6.47;4.75;;;;;;;;;;5032582;28;20060;-58
2022/04/09 08:13:50;;;;;;;8.55;3.58;;;;;;;;;;5031706;28;20073;-57
2022/04/09 08:16:19;;;;;;;6.47;4.07;;;;;;;;;;5008600;28;20080;-58
2022/04/09 08:25:50;;;;;;;4.82;3.35;;;;;;;;;;4932585;29;20035;-57
2022/04/09 08:28:43;;;;;;;6.00;3.63;;;;;;;;;;4875551;29;20039;-57
2022/04/09 08:31:19;;;;;;;4.07;3.20;;;;;;;;;;4933313;29;20036;-57
2022/04/09 08:34:13;;;;;;;6.55;3.80;;;;;;;;;;4932608;29;20039;-58
2022/04/09 08:36:59;;;;;;;4.68;4.00;;;;;;;;;;4914543;29;20058;-57
2022/04/09 08:40:02;;;;;;;4.88;3.45;;;;;;;;;;4876911;29;20029;-57
2022/04/09 08:42:38;;;;;;;8.02;4.82;;;;;;;;;;4858375;29;20395;-57
2022/04/09 08:45:23;;;;;;;;;;;;;;;;;;;;;
2022/04/09 08:55:15;;;;;;;6.50;3.63;;;;;;;;;;4952440;28;20031;-57
2022/04/09 09:03:48;;;;;;;3.65;2.83;;;;;;;;;;5025136;28;20033;-57
2022/04/09 09:06:31;;;;;;;5.43;2.95;;;;;;;;;;5032231;28;20495;-57
2022/04/09 09:09:30;;;;;;;5.35;3.20;;;;;;;;;;4998868;28;20517;-57
2022/04/09 09:12:06;;;;;;;6.35;2.65;;;;;;;;;;5015951;28;20293;-56
2022/04/09 09:14:51;;;;;;;5.10;2.95;;;;;;;;;;5013383;28;20621;-57
2022/04/09 09:17:40;;;;;;;4.40;2.47;;;;;;;;;;5031574;28;20049;-57
2022/04/09 09:20:21;;;;;;;6.18;2.95;;;;;;;;;;5032725;28;20037;-57
2022/04/09 09:26:18;;;;;;;6.00;3.92;;;;;;;;;;5035848;28;20041;-57
2022/04/09 09:29:13;;;;;;;9.63;3.33;;;;;;;;;;5035555;28;20037;-57
2022/04/09 09:31:52;;;;;;;8.73;3.63;;;;;;;;;;5036899;28;20553;-56
2022/04/09 09:34:44;;;;;;;4.90;2.72;;;;;;;;;;5036283;28;20063;-55
2022/04/09 09:37:31;;;;;;;3.53;2.42;;;;;;;;;;5034405;28;20086;-58
2022/04/09 09:46:28;;;;;;;7.78;3.85;;;;;;;;;;4973518;28;20302;-56
2022/04/09 09:49:28;;;;;;;;;;;;;;;;;;;;;
2022/04/09 09:52:30;;;;;;;7.15;3.25;;;;;;;;;;4905863;29;20053;-57
2022/04/09 10:00:34;;;;;;;10.75;4.07;;;;;;;;;;4955205;29;20170;-54
2022/04/09 10:03:26;;;;;;;6.82;2.28;;;;;;;;;;4988018;28;20484;-56
2022/04/09 10:06:16;;;;;;;10.63;3.35;;;;;;;;;;4983407;28;20492;-55
2022/04/09 10:09:02;;;;;;;13.23;3.03;;;;;;;;;;5013962;28;20244;-56
2022/04/09 10:11:52;;;;;;;4.55;2.95;;;;;;;;;;5015801;28;20105;-54
2022/04/09 10:19:19;;;;;;;8.00;2.63;;;;;;;;;;4919005;29;20074;-57
2022/04/09 10:21:38;;;;;;;7.35;2.25;;;;;;;;;;4833295;29;20116;-55
2022/04/09 10:24:18;;;;;;;13.30;3.22;;;;;;;;;;5021760;28;20029;-54
2022/04/09 10:27:06;;;;;;;3.78;2.45;;;;;;;;;;5034161;28;20459;-57
2022/04/09 10:29:59;;;;;;;5.32;2.88;;;;;;;;;;5020405;28;20028;-57
2022/04/09 10:32:59;;;;;;;2.72;1.65;;;;;;;;;;5034635;28;20033;-57
2022/04/09 10:36:04;;;;;;;;;;;;;;;;;;;;;
2022/04/09 10:39:02;;;;;;;9.82;2.40;;;;;;;;;;5011704;28;20030;-56
2022/04/09 10:42:05;;;;;;;;;;;;;;;;;;;;;
2022/04/09 10:48:17;;;;;;;8.05;3.03;;;;;;;;;;4934244;29;20031;-57
2022/04/09 10:51:04;;;;;;;5.70;2.05;;;;;;;;;;4919136;29;20553;-57
2022/04/09 10:53:37;;;;;;;6.15;2.17;;;;;;;;;;5006803;28;20041;-56
2022/04/09 10:56:31;;;;;;;5.40;2.15;;;;;;;;;;4990242;28;20472;-56
2022/04/09 10:59:21;;;;;;;2.47;1.48;;;;;;;;;;5006081;28;20042;-56
2022/04/09 11:08:14;;;;;;;7.43;2.15;;;;;;;;;;5034431;28;20128;-57
2022/04/09 11:10:59;;;;;;;4.93;2.17;;;;;;;;;;5015894;28;20037;-57
2022/04/09 11:14:07;;;;;;;3.38;2.40;;;;;;;;;;5033444;28;20510;-57
2022/04/09 11:17:12;;;;;;;;;;;;;;;;;;;;;
2022/04/09 11:19:51;;;;;;;3.13;1.60;;;;;;;;;;4979780;28;20038;-57
2022/04/09 11:22:31;;;;;;;7.15;2.83;;;;;;;;;;5041679;28;20049;-54
2022/04/09 11:25:21;;;;;;;2.97;1.92;;;;;;;;;;5014252;28;20513;-53
2022/04/09 11:28:29;;;;;;;4.00;2.03;;;;;;;;;;5033179;28;20028;-53
2022/04/09 11:31:08;;;;;;;3.60;1.90;;;;;;;;;;5013743;28;20476;-55
2022/04/09 11:33:47;;;;;;;6.25;2.53;;;;;;;;;;5014876;28;20033;-56
2022/04/09 11:36:22;;;;;;;5.70;1.60;;;;;;;;;;5015129;28;20391;-57
2022/04/09 11:39:03;;;;;;;2.92;2.00;;;;;;;;;;5013935;28;20096;-52
2022/04/09 11:41:44;;;;;;;7.90;1.60;;;;;;;;;;5013137;28;20499;-55
2022/04/09 11:44:47;;;;;;;6.57;1.77;;;;;;;;;;5029032;28;20502;-56
2022/04/09 11:47:45;;;;;;;2.45;1.83;;;;;;;;;;5033228;28;20026;-56
2022/04/09 11:50:37;;;;;;;;;;;;;;;;;;;;;
2022/04/09 11:53:47;;;;;;;;;;;;;;;;;;;;;
2022/04/09 11:56:29;;;;;;;3.38;1.70;;;;;;;;;;5032712;28;20043;-56
2022/04/09 11:59:32;;;;;;;;;;;;;;;;;;;;;
2022/04/09 12:02:05;;;;;;;4.25;1.88;;;;;;;;;;5032624;28;20046;-54
2022/04/09 12:05:15;;;;;;;2.58;1.33;;;;;;;;;;5014247;28;20072;-55
2022/04/09 12:08:02;;;;;;;2.25;1.65;;;;;;;;;;5030136;28;20041;-53
2022/04/09 12:10:58;;;;;;;2.53;1.60;;;;;;;;;;5005312;28;20475;-51
2022/04/09 12:16:52;;;;;;;3.80;1.45;;;;;;;;;;4985985;28;20050;-55
2022/04/09 12:19:48;;;;;;;3.90;2.40;;;;;;;;;;5013055;28;20049;-54
2022/04/09 12:22:44;;;;;;;;;;;;;;;;;;;;;
2022/04/09 12:28:44;;;;;;;3.60;2.17;;;;;;;;;;5012200;28;20114;-55
2022/04/09 12:31:32;;;;;;;2.80;1.73;;;;;;;;;;5027521;28;20033;-57
2022/04/09 12:34:08;;;;;;;3.95;2.10;;;;;;;;;;5011162;28;20552;-57
2022/04/09 12:37:04;;;;;;;4.20;1.70;;;;;;;;;;4990246;28;20030;-55
2022/04/09 12:42:46;;;;;;;5.40;2.58;;;;;;;;;;5013039;28;20560;-56
2022/04/09 12:45:46;;;;;;;3.97;2.33;;;;;;;;;;5022062;28;20391;-55
2022/04/09 12:51:48;;;;;;;;;;;;;;;;;;;;;
2022/04/09 12:54:45;;;;;;;;;;;;;;;;;;;;;
2022/04/09 12:57:35;;;;;;;4.85;1.77;;;;;;;;;;4916353;29;20036;-57
2022/04/09 13:03:33;;;;;;;5.60;3.20;;;;;;;;;;5016838;28;20388;-55
2022/04/09 13:06:28;;;;;;;2.25;1.42;;;;;;;;;;5019737;28;20087;-56
2022/04/09 13:09:08;;;;;;;5.97;1.83;;;;;;;;;;5036324;28;20033;-57
2022/04/09 13:11:50;;;;;;;6.28;1.63;;;;;;;;;;5032595;28;20037;-56
2022/04/09 13:14:22;;;;;;;5.88;1.80;;;;;;;;;;4994795;28;20040;-57
2022/04/09 13:17:01;;;;;;;;;;;;;;;;;;;;;
2022/04/09 13:19:35;;;;;;;4.75;2.10;;;;;;;;;;4994356;28;20284;-56
2022/04/09 13:22:16;;;;;;;5.90;1.45;;;;;;;;;;4994353;28;20566;-58
2022/04/09 13:25:53;;;;;;;5.40;1.63;;;;;;;;;;4994592;28;20042;-57
2022/04/09 13:31:08;;;;;;;2.50;1.63;;;;;;;;;;4990883;28;20037;-56
2022/04/09 13:34:17;;;;;;;4.38;1.80;;;;;;;;;;4983758;28;20484;-54
2022/04/09 13:37:02;;;;;;;;;;;;;;;;;;;;;
2022/04/09 13:43:08;;;;;;;5.53;2.20;;;;;;;;;;5022224;28;20034;-58
2022/04/09 13:45:50;;;;;;;3.25;1.45;;;;;;;;;;5037514;28;20108;-58
2022/04/09 13:48:41;;;;;;;3.72;1.95;;;;;;;;;;5035409;28;20467;-55
2022/04/09 13:51:36;;;;;;;3.78;1.85;;;;;;;;;;5003363;28;20080;-57
2022/04/09 13:54:08;;;;;;;5.40;2.03;;;;;;;;;;5014243;28;20053;-58
2022/04/09 13:56:34;;;;;;;3.67;1.45;;;;;;;;;;5014459;28;20332;-56
2022/04/09 14:02:35;;;;;;;8.10;1.67;;;;;;;;;;5015910;28;20041;-55
2022/04/09 14:05:13;;;;;;;3.33;0.98;;;;;;;;;;5000281;28;20080;-56
2022/04/09 14:07:52;;;;;;;3.30;1.55;;;;;;;;;;5015400;28;20080;-56
2022/04/09 14:10:27;;;;;;;5.65;1.48;;;;;;;;;;5016233;28;20407;-56
2022/04/09 14:16:26;;;;;;;4.97;1.20;;;;;;;;;;5015695;28;20506;-57
2022/04/09 14:25:53;;;;;;;;;;;;;;;;;;;;;
2022/04/09 14:29:06;;;;;;;4.75;1.38;;;;;;;;;;4954443;29;20043;-56
2022/04/09 14:32:04;;;;;;;4.05;1.30;;;;;;;;;;4897535;29;20054;-55
2022/04/09 14:35:05;;;;;;;3.67;1.30;;;;;;;;;;4939535;29;20039;-57
2022/04/09 14:40:30;;;;;;;3.50;1.33;;;;;;;;;;5004442;28;20041;-57
2022/04/09 14:43:30;;;;;;;3.03;1.55;;;;;;;;;;5035414;28;20116;-56
2022/04/09 14:49:16;;;;;;;1.77;0.90;;;;;;;;;;5012852;28;20269;-57
2022/04/09 14:51:57;;;;;;;3.75;1.55;;;;;;;;;;5034827;28;20033;-57
2022/04/09 14:54:33;;;;;;;1.92;1.17;;;;;;;;;;5035365;28;20118;-57
2022/04/09 14:57:26;;;;;;;3.42;1.38;;;;;;;;;;5033665;28;20017;-56
2022/04/09 15:00:00;;;;;;;1.85;1.20;;;;;;;;;;4990893;28;20124;-56
2022/04/09 15:02:39;;;;;;;5.32;1.70;;;;;;;;;;5034819;28;20636;-56
2022/04/09 15:08:46;;;;;;;2.45;1.15;;;;;;;;;;5033820;28;20140;-56
2022/04/09 15:14:25;;;;;;;2.95;1.08;;;;;;;;;;5009801;28;20033;-56
2022/04/09 15:17:23;;;;;;;;;;;;;;;;;;;;;
2022/04/09 15:20:01;;;;;;;2.63;0.98;;;;;;;;;;5031112;28;20451;-55
2022/04/09 15:22:40;;;;;;;4.47;1.70;;;;;;;;;;5033748;28;20052;-55
2022/04/09 15:25:42;;;;;;;3.58;1.77;;;;;;;;;;5022140;28;20479;-57
2022/04/09 15:28:38;;;;;;;1.45;0.98;;;;;;;;;;5032781;28;20068;-57
2022/04/09 15:34:04;;;;;;;6.30;1.27;;;;;;;;;;5032324;28;20036;-57
2022/04/09 15:36:58;;;;;;;2.88;1.45;;;;;;;;;;5029089;28;20443;-54
2022/04/09 15:43:56;;;;;;;2.50;1.33;;;;;;;;;;5011661;28;20468;-57
2022/04/09 15:55:33;;;;;;;;;;;;;;;;;;;;;
2022/04/09 15:58:25;;;;;;;3.25;1.00;;;;;;;;;;5032547;28;20551;-56
2022/04/09 16:01:17;;;;;;;4.32;1.88;;;;;;;;;;5032034;28;20124;-58
2022/04/09 16:04:04;;;;;;;1.98;1.25;;;;;;;;;;5020901;28;20044;-58
2022/04/09 16:06:51;;;;;;;1.70;1.13;;;;;;;;;;4978318;28;20135;-57
2022/04/09 16:09:52;;;;;;;4.32;1.15;;;;;;;;;;5028964;28;20036;-56
2022/04/09 16:21:41;;;;;;;1.60;0.90;;;;;;;;;;4924369;29;20087;-57
2022/04/09 16:24:17;;;;;;;4.00;0.98;;;;;;;;;;4945068;29;20045;-58
2022/04/09 16:27:42;;;;;;;3.58;1.33;;;;;;;;;;4983643;28;20045;-57
2022/04/09 16:30:35;;;;;;;2.63;1.15;;;;;;;;;;5029373;28;20041;-56
2022/04/09 16:36:12;;;;;;;1.40;0.80;;;;;;;;;;5013513;28;20060;-57
2022/04/09 16:39:03;;;;;;;2.83;1.23;;;;;;;;;;5008607;28;20045;-55
2022/04/09 16:41:44;;;;;;;4.00;1.15;;;;;;;;;;5023474;28;20088;-57
2022/04/09 16:44:35;;;;;;;1.63;0.73;;;;;;;;;;5011263;28;20034;-55
2022/04/09 16:50:19;;;;;;;3.60;1.20;;;;;;;;;;5025868;28;20041;-57
2022/04/09 16:56:23;;;;;;;4.13;1.83;;;;;;;;;;5015485;28;20083;-57
2022/04/09 16:59:37;;;;;;;;;;;;;;;;;;;;;
2022/04/09 17:05:28;;;;;;;1.88;1.20;;;;;;;;;;5016780;28;20056;-57
2022/04/09 17:08:13;;;;;;;2.65;1.13;;;;;;;;;;5029322;28;20033;-56
2022/04/09 17:10:57;;;;;;;3.85;1.38;;;;;;;;;;5030721;28;20037;-56
2022/04/09 17:13:50;;;;;;;4.10;1.52;;;;;;;;;;5032404;28;20060;-56
2022/04/09 17:16:44;;;;;;;2.22;1.02;;;;;;;;;;4993691;28;20042;-56
2022/04/09 17:19:12;;;;;;;2.67;1.30;;;;;;;;;;4993364;28;20632;-56
2022/04/09 17:24:45;;;;;;;3.38;1.65;;;;;;;;;;5030566;28;20488;-57
2022/04/09 17:30:39;;;;;;;2.75;0.90;;;;;;;;;;5028403;28;20072;-53
2022/04/09 17:33:32;;;;;;;2.38;1.23;;;;;;;;;;5032631;28;20109;-56
2022/04/09 17:36:28;;;;;;;1.73;0.73;;;;;;;;;;5031897;28;20510;-57
2022/04/09 17:39:07;;;;;;;3.05;1.00;;;;;;;;;;5031891;28;20448;-57
2022/04/09 17:41:52;;;;;;;1.70;0.60;;;;;;;;;;5032316;28;20038;-54
2022/04/09 17:44:41;;;;;;;2.17;1.05;;;;;;;;;;5035957;28;20036;-57
2022/04/09 17:47:31;;;;;;;;;;;;;;;;;;;;;
2022/04/09 17:53:34;;;;;;;6.45;1.00;;;;;;;;;;4988488;28;20048;-57
2022/04/09 17:56:13;;;;;;;5.13;1.73;;;;;;;;;;5016148;28;20124;-56
2022/04/09 17:59:11;;;;;;;;;;;;;;;;;;;;;
2022/04/09 18:02:16;;;;;;;5.38;1.35;;;;;;;;;;5029771;28;20053;-58
2022/04/09 18:05:13;;;;;;;3.55;1.13;;;;;;;;;;4972279;28;20473;-58
2022/04/09 18:08:19;;;;;;;;;;;;;;;;;;;;;
2022/04/09 18:10:50;;;;;;;1.83;1.02;;;;;;;;;;5008913;28;20379;-58
2022/04/09 18:13:38;;;;;;;3.33;1.27;;;;;;;;;;5013547;28;20099;-55
2022/04/09 18:19:33;;;;;;;4.07;1.17;;;;;;;;;;5030638;28;20032;-58
2022/04/09 18:25:07;;;;;;;3.13;1.17;;;;;;;;;;5018283;28;20658;-57
2022/04/09 18:27:59;;;;;;;1.55;0.88;;;;;;;;;;5034853;28;20486;-55
2022/04/09 18:30:40;;;;;;;2.35;1.05;;;;;;;;;;5033554;28;20053;-57
2022/04/09 18:37:10;;;;;;;5.57;1.13;;;;;;;;;;5001525;28;20037;-57
2022/04/09 18:39:55;;;;;;;2.53;1.20;;;;;;;;;;4994667;28;20061;-58
2022/04/09 18:42:53;;;;;;;3.40;2.13;;;;;;;;;;5026208;28;20160;-59
2022/04/09 18:45:31;;;;;;;4.50;1.25;;;;;;;;;;5013296;28;20125;-56
2022/04/09 18:48:32;;;;;;;5.57;1.75;;;;;;;;;;5031701;28;20029;-56
2022/04/09 18:51:14;;;;;;;2.53;1.10;;;;;;;;;;4951417;29;20047;-56
2022/04/09 18:54:08;;;;;;;2.25;0.93;;;;;;;;;;4950479;28;20141;-53
2022/04/09 18:56:49;;;;;;;1.90;1.05;;;;;;;;;;4945811;29;20117;-57
2022/04/09 18:59:45;;;;;;;3.28;1.10;;;;;;;;;;4950837;28;20075;-56
2022/04/09 19:02:40;;;;;;;2.13;0.95;;;;;;;;;;5012777;28;20387;-58
2022/04/09 19:08:24;;;;;;;;;;;;;;;;;;;;;
2022/04/09 19:11:00;;;;;;;1.83;1.15;;;;;;;;;;5012066;28;20044;-57
2022/04/09 19:13:40;;;;;;;2.17;1.20;;;;;;;;;;5012419;28;20108;-58
2022/04/09 19:16:33;;;;;;;1.60;1.08;;;;;;;;;;5011055;28;20137;-56
2022/04/09 19:19:11;;;;;;;3.00;1.58;;;;;;;;;;5010031;28;20109;-56
2022/04/09 19:21:55;;;;;;;2.33;1.42;;;;;;;;;;5012345;28;20128;-55
2022/04/09 19:24:51;;;;;;;2.80;1.45;;;;;;;;;;5029320;28;20041;-53
2022/04/09 19:30:38;;;;;;;3.78;1.95;;;;;;;;;;5009001;28;20041;-56
2022/04/09 19:33:27;;;;;;;1.83;0.82;;;;;;;;;;5009026;28;20547;-56
2022/04/09 19:42:32;;;;;;;1.52;0.90;;;;;;;;;;4963665;28;20043;-53
2022/04/09 19:45:35;;;;;;;3.17;2.63;;;;;;;;;;4978826;28;20605;-56
2022/04/09 19:48:30;;;;;;;3.70;1.80;;;;;;;;;;5030812;28;20025;-56
2022/04/09 19:51:06;;;;;;;4.73;2.40;;;;;;;;;;5031127;28;20426;-55
2022/04/09 19:56:52;;;;;;;4.13;2.28;;;;;;;;;;5031733;28;20101;-56
2022/04/09 19:59:29;;;;;;;3.27;1.93;;;;;;;;;;5010372;28;20053;-55
2022/04/09 20:02:14;;;;;;;3.47;2.13;;;;;;;;;;5006959;28;20037;-57
2022/04/09 20:05:03;;;;;;;3.13;1.73;;;;;;;;;;5015029;28;20101;-55
2022/04/09 20:10:30;;;;;;;2.55;1.77;;;;;;;;;;5032633;28;20037;-56
2022/04/09 20:13:18;;;;;;;;;;;;;;;;;;;;;
2022/04/09 20:19:08;;;;;;;4.03;1.77;;;;;;;;;;5012622;28;20553;-56
2022/04/09 20:25:17;;;;;;;3.85;1.73;;;;;;;;;;5027551;28;20080;-56
2022/04/09 20:37:11;;;;;;;2.70;1.05;;;;;;;;;;5002429;28;20050;-55
2022/04/09 20:40:02;;;;;;;2.53;1.30;;;;;;;;;;5008996;28;20065;-55
2022/04/09 20:45:50;;;;;;;2.73;0.93;;;;;;;;;;4942720;28;20027;-55
2022/04/09 20:51:46;;;;;;;1.20;0.70;;;;;;;;;;5021719;28;20042;-57
2022/04/09 21:07:09;;;;;;;;;;;;;;;;;;;;;
2022/04/09 21:12:54;;;;;;;;;;;;;;;;;;;;;
2022/04/09 21:15:30;;;;;;;2.13;1.10;;;;;;;;;;5045517;28;20045;-60
2022/04/09 21:21:39;;;;;;;1.67;0.90;;;;;;;;;;4994486;28;20041;-57
2022/04/09 21:30:19;;;;;;;1.00;0.63;;;;;;;;;;5003104;28;20034;-58
2022/04/09 21:32:49;;;;;;;1.33;0.75;;;;;;;;;;5049726;28;20081;-57
2022/04/09 21:41:14;;;;;;;3.30;1.67;;;;;;;;;;4960597;28;20183;-56
2022/04/09 21:44:29;;;;;;;;;;;;;;;;;;;;;
2022/04/09 21:47:14;;;;;;;2.93;1.27;;;;;;;;;;5049771;28;20041;-58
2022/04/09 21:49:47;;;;;;;1.77;1.07;;;;;;;;;;5049872;28;20093;-58
2022/04/09 21:52:29;;;;;;;3.67;0.80;;;;;;;;;;5049766;28;20097;-57
2022/04/09 21:55:18;;;;;;;2.07;1.43;;;;;;;;;;5049740;28;20056;-57
2022/04/09 22:01:00;;;;;;;1.70;1.20;;;;;;;;;;5049239;28;20033;-58
2022/04/09 22:03:48;;;;;;;5.90;1.67;;;;;;;;;;5048483;28;20034;-57
2022/04/09 22:09:54;;;;;;;2.33;1.30;;;;;;;;;;5047967;28;20041;-58
2022/04/09 22:12:39;;;;;;;4.33;1.30;;;;;;;;;;5049286;28;20022;-56
2022/04/09 22:18:32;;;;;;;3.97;1.67;;;;;;;;;;5033086;28;20037;-57
2022/04/09 22:21:12;;;;;;;;;;;;;;;;;;5048794;28;20092;-57
2022/04/09 22:24:01;;;;;;;3.00;1.50;;;;;;;;;;5048121;28;19944;-58
2022/04/09 22:29:47;;;;;;;3.27;2.13;;;;;;;;;;5042224;28;20030;-57
2022/04/09 22:32:42;;;;;;;2.73;1.50;;;;;;;;;;5037273;28;20044;-60
2022/04/09 22:35:27;;;;;;;2.40;1.73;;;;;;;;;;5041210;28;20037;-58
2022/04/09 22:38:06;;;;;;;2.93;1.77;;;;;;;;;;5046801;28;20037;-57
2022/04/09 22:40:41;;;;;;;4.73;1.43;;;;;;;;;;5048086;28;20033;-57
2022/04/09 22:43:51;;;;;;;2.77;1.60;;;;;;;;;;5048276;28;20056;-58
2022/04/09 22:46:51;;;;;;;3.40;2.50;;;;;;;;;;5046671;28;20026;-58
2022/04/09 22:49:26;;;;;;;1.87;1.40;;;;;;;;;;4932178;29;20039;-57
2022/04/09 22:51:55;;;;;;;2.80;1.77;;;;;;;;;;5003609;28;20042;-58